Time;durP1;ratioP1;P1;durP2;ratioP2;P2;SDS_P1;SDS_P2;PMS_P1;PMS_P2;Temp;Humidity;BMP_temperature;BMP_pressure;BME280_temperature;BME280_humidity;BME280_pressure;Samples;Min_cycle;Max_cycle;Signal;HPM_P1;HPM_P2
2021/03/22 00:06:13;;;;;;;16.75;2.28;;;5.20;99.90;;;;;;6695133;88;20191;-74
2021/03/22 00:16:14;;;;;;;13.57;2.10;;;5.10;99.90;;;;;;6696461;88;21193;-74
2021/03/22 00:26:55;;;;;;;20.25;2.40;;;5.00;99.90;;;;;;6749286;77;20252;-81
2021/03/22 00:36:56;;;;;;;15.82;2.62;;;4.90;99.90;;;;;;6692402;89;20208;-80
2021/03/22 00:46:56;;;;;;;16.00;2.10;;;4.90;99.90;;;;;;6691376;89;20280;-81
2021/03/22 00:56:57;;;;;;;16.00;2.55;;;4.70;99.90;;;;;;6695090;89;20234;-80
2021/03/22 01:06:57;;;;;;;15.88;2.33;;;4.70;99.90;;;;;;6722083;88;20632;-79
2021/03/22 01:16:58;;;;;;;15.27;2.35;;;4.80;99.90;;;;;;6731702;88;20287;-79
2021/03/22 01:27:04;;;;;;;14.48;2.78;;;4.80;99.90;;;;;;6727446;88;20516;-80
2021/03/22 01:37:06;;;;;;;21.73;2.33;;;4.70;99.90;;;;;;6729807;88;20177;-80
2021/03/22 01:47:19;;;;;;;19.87;2.33;;;4.80;99.90;;;;;;6725270;88;20162;-81
2021/03/22 01:57:31;;;;;;;21.37;3.22;;;4.80;99.90;;;;;;6728567;88;20216;-80
2021/03/22 02:07:32;;;;;;;10.55;2.15;;;4.80;99.90;;;;;;6709319;88;20245;-80
2021/03/22 02:17:57;;;;;;;22.67;3.85;;;4.80;99.90;;;;;;6729299;88;20266;-80
2021/03/22 02:28:21;;;;;;;16.48;2.03;;;4.80;99.90;;;;;;6712113;88;20202;-80
2021/03/22 02:38:27;;;;;;;19.25;2.45;;;4.80;99.90;;;;;;6692105;89;20213;-80
2021/03/22 02:48:29;;;;;;;15.35;2.90;;;4.80;99.90;;;;;;6690538;88;20783;-80
2021/03/22 02:58:43;;;;;;;12.43;2.00;;;4.80;99.90;;;;;;6699506;88;20201;-80
2021/03/22 03:08:44;;;;;;;13.32;2.20;;;4.80;99.90;;;;;;6689827;89;20241;-80
2021/03/22 03:18:44;;;;;;;20.37;2.00;;;4.80;99.90;;;;;;6699775;88;20978;-79
2021/03/22 03:28:45;;;;;;;18.92;2.37;;;4.70;99.90;;;;;;6706137;88;20163;-79
2021/03/22 03:38:46;;;;;;;17.62;2.60;;;4.70;99.90;;;;;;6716150;88;20188;-80
2021/03/22 03:48:46;;;;;;;17.00;2.83;;;4.70;99.90;;;;;;6712798;88;20220;-79
2021/03/22 03:58:47;;;;;;;17.25;2.90;;;4.70;99.90;;;;;;6716888;88;20632;-80
2021/03/22 04:08:50;;;;;;;19.83;2.12;;;4.70;99.90;;;;;;6716174;88;20468;-80
2021/03/22 04:18:51;;;;;;;17.37;3.28;;;4.70;99.90;;;;;;6712665;88;20213;-80
2021/03/22 04:28:52;;;;;;;17.87;3.10;;;4.60;99.90;;;;;;6716825;88;20191;-79
2021/03/22 04:38:53;;;;;;;25.12;4.47;;;4.60;99.90;;;;;;6715163;88;20238;-80
2021/03/22 04:48:53;;;;;;;19.62;4.75;;;4.60;99.90;;;;;;6707220;88;20307;-80
2021/03/22 04:58:54;;;;;;;26.10;6.57;;;4.60;99.90;;;;;;6706860;88;20254;-78
2021/03/22 05:08:56;;;;;;;25.12;7.95;;;4.60;99.90;;;;;;6706677;88;20648;-80
2021/03/22 05:18:56;;;;;;;23.40;8.13;;;4.50;99.90;;;;;;6705987;88;20312;-80
2021/03/22 05:28:57;;;;;;;28.17;7.50;;;4.40;99.90;;;;;;6706628;88;20222;-79
2021/03/22 05:38:58;;;;;;;24.07;6.70;;;4.30;99.90;;;;;;6703390;88;20272;-78
2021/03/22 05:49:06;;;;;;;20.37;5.95;;;4.30;99.90;;;;;;6707483;89;21065;-79
2021/03/22 05:59:38;;;;;;;19.10;7.40;;;4.40;99.90;;;;;;6703867;89;20209;-80
2021/03/22 06:09:45;;;;;;;22.80;6.47;;;4.40;99.90;;;;;;6696188;89;20211;-79
2021/03/22 06:19:58;;;;;;;21.15;6.80;;;4.40;99.90;;;;;;6699105;89;20564;-80
2021/03/22 06:29:58;;;;;;;22.90;7.18;;;4.50;99.90;;;;;;6699504;89;20218;-80
2021/03/22 06:40:10;;;;;;;27.75;8.05;;;4.60;99.90;;;;;;6698544;88;20248;-80
2021/03/22 06:50:14;;;;;;;32.75;8.85;;;4.70;99.90;;;;;;6717301;88;20167;-80
2021/03/22 07:00:23;;;;;;;27.02;7.70;;;4.80;99.90;;;;;;6709832;88;20194;-78
2021/03/22 07:10:46;;;;;;;24.80;8.05;;;5.00;99.90;;;;;;6698267;88;20261;-79
2021/03/22 07:21:09;;;;;;;27.95;7.62;;;5.10;99.90;;;;;;6697096;88;20171;-80
2021/03/22 07:31:50;;;;;;;25.45;7.55;;;5.00;99.90;;;;;;6698517;88;20260;-79
2021/03/22 07:42:18;;;;;;;23.60;8.98;;;5.00;99.90;;;;;;6698041;88;20210;-78
2021/03/22 07:52:38;;;;;;;27.15;9.70;;;5.40;99.90;;;;;;6703972;88;20199;-80
2021/03/22 08:03:19;;;;;;;26.48;9.25;;;5.60;99.90;;;;;;6698326;88;20202;-80
2021/03/22 08:14:01;;;;;;;19.62;8.73;;;5.60;99.90;;;;;;6715198;88;20188;-80
2021/03/22 08:24:10;;;;;;;19.67;7.40;;;5.80;99.90;;;;;;6629779;89;20864;-80
2021/03/22 08:34:21;;;;;;;19.85;8.25;;;6.00;99.90;;;;;;6697218;88;20214;-80
2021/03/22 08:44:42;;;;;;;22.65;9.27;;;6.40;99.90;;;;;;6710915;88;20176;-81
2021/03/22 08:54:42;;;;;;;20.67;7.32;;;6.40;99.90;;;;;;6711187;88;20653;-80
2021/03/22 09:04:43;;;;;;;16.40;6.85;;;6.70;99.90;;;;;;6707137;88;20234;-80
2021/03/22 09:14:50;;;;;;;21.95;9.15;;;6.50;99.90;;;;;;6709884;88;20198;-81
2021/03/22 09:24:50;;;;;;;17.00;7.60;;;6.50;99.90;;;;;;6705548;88;20269;-80
2021/03/22 09:35:04;;;;;;;16.83;7.95;;;6.70;99.90;;;;;;6706329;88;20202;-80
2021/03/22 09:45:21;;;;;;;21.20;9.20;;;7.10;99.90;;;;;;6704795;88;20197;-79
2021/03/22 09:55:28;;;;;;;15.35;7.00;;;7.40;99.90;;;;;;6699723;89;20205;-79
2021/03/22 10:05:31;;;;;;;;;;;8.20;99.90;;;;;;6701716;89;20193;-80
2021/03/22 10:15:44;;;;;;;16.20;7.37;;;8.00;99.90;;;;;;6699311;88;20955;-79
2021/03/22 10:25:47;;;;;;;17.95;8.25;;;8.00;99.90;;;;;;6702417;88;20213;-80
2021/03/22 10:35:57;;;;;;;13.73;7.78;;;8.00;99.90;;;;;;6718197;88;20246;-79
2021/03/22 10:46:19;;;;;;;16.12;6.95;;;8.20;99.90;;;;;;6716588;88;21230;-80
2021/03/22 10:56:26;;;;;;;12.65;5.68;;;8.20;99.90;;;;;;6689460;88;20215;-81
2021/03/22 11:06:32;;;;;;;11.23;4.70;;;8.30;99.90;;;;;;6712883;88;20204;-78
2021/03/22 11:16:36;;;;;;;11.65;5.28;;;8.60;99.90;;;;;;6707847;88;20292;-77
2021/03/22 11:26:37;;;;;;;13.45;6.05;;;8.80;99.90;;;;;;6696868;88;20218;-78
2021/03/22 11:36:40;;;;;;;11.90;5.68;;;8.60;99.90;;;;;;6692400;88;20204;-78
2021/03/22 11:46:43;;;;;;;13.27;6.72;;;8.10;99.90;;;;;;6696177;88;20721;-78
2021/03/22 11:57:04;;;;;;;9.75;5.20;;;7.40;99.90;;;;;;6695779;88;20218;-78
2021/03/22 12:07:12;;;;;;;11.27;5.80;;;7.50;99.90;;;;;;6692211;88;20222;-78
2021/03/22 12:17:29;;;;;;;16.58;8.00;;;7.40;99.90;;;;;;6712130;88;20235;-82
2021/03/22 12:27:33;;;;;;;15.65;6.07;;;7.60;99.90;;;;;;6703303;88;20187;-83
2021/03/22 12:37:35;;;;;;;11.20;5.55;;;8.20;99.90;;;;;;6679085;89;20199;-82
2021/03/22 12:47:36;;;;;;;10.38;5.55;;;8.30;99.90;;;;;;6616865;90;20330;-81
2021/03/22 12:57:36;;;;;;;13.35;6.62;;;8.80;99.90;;;;;;6619501;90;20225;-81
2021/03/22 13:07:37;;;;;;;9.43;4.70;;;9.10;99.90;;;;;;6624289;89;20306;-81
2021/03/22 13:17:37;;;;;;;12.02;4.25;;;9.20;99.90;;;;;;6661665;89;20670;-81
2021/03/22 13:27:38;;;;;;;8.93;3.00;;;9.10;99.90;;;;;;6689679;89;20336;-80
2021/03/22 13:37:40;;;;;;;8.48;3.65;;;8.50;99.90;;;;;;6689125;89;20202;-82
2021/03/22 13:47:40;;;;;;;8.70;3.42;;;8.20;99.90;;;;;;6684087;89;20206;-80
2021/03/22 13:57:42;;;;;;;12.30;3.13;;;8.00;99.90;;;;;;6705242;89;20209;-83
2021/03/22 14:07:45;;;;;;;8.48;2.50;;;8.20;99.90;;;;;;6705215;89;20505;-81
2021/03/22 14:17:47;;;;;;;8.07;3.17;;;8.20;99.90;;;;;;6706681;89;20225;-82
2021/03/22 14:27:50;;;;;;;8.75;3.60;;;8.10;99.90;;;;;;6658723;89;20283;-82
2021/03/22 14:37:50;;;;;;;7.72;2.67;;;8.20;99.90;;;;;;6641237;89;20201;-82
2021/03/22 14:47:51;;;;;;;8.90;3.22;;;8.00;99.90;;;;;;6623910;90;20228;-82
2021/03/22 14:57:52;;;;;;;8.38;2.95;;;8.10;99.90;;;;;;6634346;89;20159;-82
2021/03/22 15:07:52;;;;;;;7.82;2.97;;;7.90;99.90;;;;;;6707543;88;20219;-82
2021/03/22 15:17:54;;;;;;;7.78;2.70;;;7.80;99.90;;;;;;6711608;88;20237;-82
2021/03/22 15:38:58;;;;;;;6.05;2.47;;;7.50;99.90;;;;;;6696603;88;23016;-79
2021/03/22 15:48:59;;;;;;;6.90;2.20;;;7.50;99.90;;;;;;6670467;89;20213;-80
2021/03/22 15:59:00;;;;;;;8.35;2.90;;;7.50;99.90;;;;;;6654771;89;20188;-81
2021/03/22 16:09:00;;;;;;;8.18;2.60;;;7.20;99.90;;;;;;6638333;89;20223;-81
2021/03/22 16:19:01;;;;;;;8.43;3.20;;;8.20;99.90;;;;;;6671291;89;20186;-82
2021/03/22 16:29:04;;;;;;;11.10;3.10;;;7.40;99.90;;;;;;6668843;89;20540;-80
2021/03/22 16:39:05;;;;;;;8.90;3.22;;;7.40;99.90;;;;;;6680837;89;20697;-80
2021/03/22 16:49:05;;;;;;;14.80;3.72;;;7.40;99.90;;;;;;6692865;89;20214;-82
2021/03/22 16:59:06;;;;;;;8.30;3.35;;;7.40;99.90;;;;;;6688955;89;20227;-81
2021/03/22 17:09:07;;;;;;;11.40;3.00;;;7.40;99.90;;;;;;6686668;89;20216;-79
2021/03/22 17:19:07;;;;;;;10.73;3.20;;;7.40;99.90;;;;;;6705811;77;20209;-78
2021/03/22 17:29:08;;;;;;;7.28;2.85;;;7.30;99.90;;;;;;6725334;88;20208;-78
2021/03/22 17:39:09;;;;;;;9.63;3.10;;;7.40;99.90;;;;;;6727031;88;20184;-76
2021/03/22 17:49:10;;;;;;;11.18;3.55;;;7.30;99.90;;;;;;6722271;88;20174;-77
2021/03/22 17:59:11;;;;;;;10.73;3.55;;;7.10;99.90;;;;;;6724842;88;20178;-77
2021/03/22 18:09:11;;;;;;;10.23;3.20;;;7.20;99.90;;;;;;6721148;88;20721;-77
2021/03/22 18:19:12;;;;;;;10.80;3.22;;;7.10;99.90;;;;;;6714504;88;20499;-76
2021/03/22 18:29:13;;;;;;;6.95;3.00;;;7.10;99.90;;;;;;6719031;88;20283;-76
2021/03/22 18:39:14;;;;;;;10.75;3.70;;;7.20;99.90;;;;;;6711871;88;20232;-76
2021/03/22 18:49:16;;;;;;;7.87;3.00;;;7.10;99.90;;;;;;6718830;88;20277;-76
2021/03/22 18:59:17;;;;;;;8.30;3.40;;;7.10;99.90;;;;;;6718435;88;20174;-75
2021/03/22 19:09:17;;;;;;;8.55;3.47;;;7.00;99.90;;;;;;6716474;88;20193;-74
2021/03/22 19:19:18;;;;;;;12.15;3.85;;;7.10;99.90;;;;;;6720865;88;20186;-77
2021/03/22 19:29:24;;;;;;;11.93;3.78;;;7.00;99.90;;;;;;6724520;88;20207;-77
2021/03/22 19:39:25;;;;;;;11.60;3.13;;;7.00;99.90;;;;;;6721010;88;20185;-76
2021/03/22 19:49:25;;;;;;;11.38;3.95;;;6.90;99.90;;;;;;6717933;88;20225;-75
2021/03/22 19:59:26;;;;;;;12.77;3.53;;;6.90;99.90;;;;;;6718669;88;20203;-76
2021/03/22 20:09:28;;;;;;;10.20;3.37;;;6.80;99.90;;;;;;6713600;88;20176;-74
2021/03/22 20:19:28;;;;;;;9.23;3.50;;;6.80;99.90;;;;;;6717441;88;20496;-75
2021/03/22 20:29:29;;;;;;;11.35;3.30;;;6.90;99.90;;;;;;6723421;88;20194;-74
2021/03/22 20:39:29;;;;;;;8.55;3.12;;;6.80;99.90;;;;;;6727594;88;20194;-74
2021/03/22 20:49:30;;;;;;;7.97;3.10;;;6.80;99.90;;;;;;6715629;88;22133;-75
2021/03/22 20:59:30;;;;;;;12.05;3.50;;;6.90;99.90;;;;;;6715283;88;20201;-73
2021/03/22 21:09:31;;;;;;;8.13;3.30;;;6.80;99.90;;;;;;6715168;88;20195;-74
2021/03/22 21:19:32;;;;;;;8.20;3.17;;;6.80;99.90;;;;;;6719311;88;20209;-73
2021/03/22 21:29:32;;;;;;;9.10;3.30;;;6.80;99.90;;;;;;6722445;88;20583;-74
2021/03/22 21:39:33;;;;;;;10.40;3.62;;;6.90;99.90;;;;;;6715196;88;20323;-74
2021/03/22 21:49:33;;;;;;;10.05;4.65;;;6.80;99.90;;;;;;6709247;88;20249;-74
2021/03/22 21:59:34;;;;;;;11.57;4.43;;;6.80;99.90;;;;;;6711974;88;21399;-74
2021/03/22 22:09:36;;;;;;;8.25;4.05;;;6.80;99.90;;;;;;6716621;88;20308;-75
2021/03/22 22:19:37;;;;;;;10.07;4.28;;;6.70;99.90;;;;;;6713709;88;20209;-75
2021/03/22 22:29:38;;;;;;;8.55;4.07;;;6.70;99.90;;;;;;6724421;88;20209;-75
2021/03/22 22:39:38;;;;;;;9.68;4.93;;;6.70;99.90;;;;;;6716730;88;20308;-74
2021/03/22 22:49:39;;;;;;;9.02;4.80;;;6.70;99.90;;;;;;6721010;88;20193;-75
2021/03/22 22:59:39;;;;;;;12.57;5.57;;;6.70;99.90;;;;;;6720528;88;20692;-75
2021/03/22 23:09:40;;;;;;;14.07;5.95;;;6.70;99.90;;;;;;6722852;88;20200;-75
2021/03/22 23:19:41;;;;;;;14.65;6.80;;;6.70;99.90;;;;;;6720973;88;20205;-75
2021/03/22 23:29:41;;;;;;;14.60;7.15;;;6.70;99.90;;;;;;6718641;88;20205;-75
2021/03/22 23:39:42;;;;;;;13.25;7.22;;;6.60;99.90;;;;;;6718038;88;20279;-75
2021/03/22 23:49:42;;;;;;;13.40;7.30;;;6.60;99.90;;;;;;6718586;88;20298;-75
2021/03/22 23:59:43;;;;;;;13.32;7.80;;;6.50;99.90;;;;;;6713633;88;20186;-75
